Time;durP1;ratioP1;P1;durP2;ratioP2;P2;SDS_P1;SDS_P2;PMS_P1;PMS_P2;Temp;Humidity;BMP_temperature;BMP_pressure;BME280_temperature;BME280_humidity;BME280_pressure;Samples;Min_cycle;Max_cycle;Signal;HPM_P1;HPM_P2
2022/04/19 00:00:57;;;;;;;10.40;3.75;;;5.20;99.90;;;;;;5035956;28;20061;-63
2022/04/19 00:03:24;;;;;;;3.33;2.85;;;5.20;99.90;;;;;;5043459;28;20047;-65
2022/04/19 00:05:51;;;;;;;2.65;2.45;;;5.10;99.90;;;;;;5036997;28;20037;-65
2022/04/19 00:08:18;;;;;;;3.33;2.67;;;5.00;99.90;;;;;;5044349;28;20135;-63
2022/04/19 00:10:45;;;;;;;2.47;2.28;;;4.90;99.90;;;;;;5042112;28;20075;-64
2022/04/19 00:13:16;;;;;;;3.80;2.80;;;4.80;99.90;;;;;;5040051;28;20393;-64
2022/04/19 00:15:44;;;;;;;2.65;2.45;;;4.80;99.90;;;;;;5045160;28;20055;-64
2022/04/19 00:18:14;;;;;;;3.25;2.92;;;4.70;99.90;;;;;;5033355;28;20432;-65
2022/04/19 00:20:44;;;;;;;2.22;2.00;;;4.60;99.90;;;;;;5038768;28;20324;-64
2022/04/19 00:23:12;;;;;;;4.47;2.30;;;4.60;99.90;;;;;;5030956;28;20155;-64
2022/04/19 00:25:42;;;;;;;2.88;2.67;;;4.50;99.90;;;;;;5038173;28;20103;-64
2022/04/19 00:28:10;;;;;;;3.20;2.72;;;4.40;99.90;;;;;;5036121;28;20087;-65
2022/04/19 00:30:37;;;;;;;3.25;2.20;;;4.40;99.90;;;;;;5050642;28;20072;-64
2022/04/19 00:33:06;;;;;;;2.38;1.70;;;4.30;99.90;;;;;;5024868;28;20040;-64
2022/04/19 00:35:34;;;;;;;3.33;2.88;;;4.30;99.90;;;;;;5035857;28;20376;-64
2022/04/19 00:38:01;;;;;;;4.22;2.53;;;4.20;99.90;;;;;;5057918;28;20044;-64
2022/04/19 00:40:28;;;;;;;3.45;2.67;;;4.10;99.90;;;;;;5028960;28;20065;-64
2022/04/19 00:42:55;;;;;;;1.88;1.75;;;4.10;99.90;;;;;;5029786;28;20073;-63
2022/04/19 00:45:23;;;;;;;3.30;2.53;;;4.00;99.90;;;;;;5028598;28;20697;-64
2022/04/19 00:47:51;;;;;;;2.42;2.22;;;4.00;99.90;;;;;;5029792;28;20579;-63
2022/04/19 00:50:20;;;;;;;2.40;1.65;;;3.90;99.90;;;;;;5056370;28;20626;-63
2022/04/19 00:52:48;;;;;;;1.65;1.55;;;3.90;99.90;;;;;;5036687;28;20041;-63
2022/04/19 00:55:15;;;;;;;1.90;1.50;;;3.80;99.90;;;;;;5021095;28;20074;-63
2022/04/19 00:57:46;;;;;;;2.63;1.77;;;3.80;99.90;;;;;;5016700;28;20038;-64
2022/04/19 01:00:15;;;;;;;1.60;1.50;;;3.80;99.90;;;;;;5009425;28;20659;-63
2022/04/19 01:02:55;;;;;;;2.30;2.10;;;3.70;99.90;;;;;;5018563;28;20056;-63
2022/04/19 01:05:25;;;;;;;;;;;3.60;99.90;;;;;;5030697;28;20080;-64
2022/04/19 01:07:53;;;;;;;4.50;1.80;;;3.60;99.90;;;;;;5033903;28;19924;-65
2022/04/19 01:10:26;;;;;;;1.98;1.50;;;3.60;99.90;;;;;;5028876;28;20045;-63
2022/04/19 01:15:41;;;;;;;1.65;1.55;;;3.60;99.90;;;;;;5028878;28;20048;-64
2022/04/19 01:18:12;;;;;;;3.00;1.38;;;3.50;99.90;;;;;;5030949;28;20076;-64
2022/04/19 01:20:41;;;;;;;2.88;1.90;;;3.40;99.90;;;;;;5018100;28;20471;-63
2022/04/19 01:23:18;;;;;;;1.92;1.75;;;3.40;99.90;;;;;;5059195;28;20148;-65
2022/04/19 01:25:45;;;;;;;1.98;1.83;;;3.40;99.90;;;;;;5037968;28;20378;-63
2022/04/19 01:28:11;;;;;;;2.55;1.90;;;3.30;99.90;;;;;;5020541;28;20045;-63
2022/04/19 01:30:43;;;;;;;2.03;1.85;;;3.30;99.90;;;;;;5045090;28;20041;-64
2022/04/19 01:33:14;;;;;;;1.63;1.45;;;3.20;99.90;;;;;;5039662;28;20133;-63
2022/04/19 01:35:44;;;;;;;1.50;1.35;;;3.10;99.90;;;;;;5026136;28;20045;-63
2022/04/19 01:38:13;;;;;;;1.95;1.73;;;3.10;99.90;;;;;;5062912;28;20531;-63
2022/04/19 01:40:41;;;;;;;2.47;1.70;;;3.10;99.90;;;;;;5061179;28;20048;-64
2022/04/19 01:43:12;;;;;;;2.10;1.90;;;3.00;99.90;;;;;;5030420;28;20053;-64
2022/04/19 01:45:59;;;;;;;3.65;2.17;;;3.00;99.90;;;;;;5055425;28;20060;-63
2022/04/19 01:48:27;;;;;;;2.65;1.92;;;3.00;99.90;;;;;;5033149;28;20092;-63
2022/04/19 01:50:54;;;;;;;2.20;1.92;;;3.00;99.90;;;;;;5031363;28;20570;-63
2022/04/19 01:53:21;;;;;;;2.20;2.00;;;3.00;99.90;;;;;;5055139;28;20061;-64
2022/04/19 01:55:49;;;;;;;2.03;1.65;;;3.00;99.90;;;;;;5021715;28;20049;-66
2022/04/19 01:58:35;;;;;;;7.65;2.33;;;2.90;99.90;;;;;;5037865;28;20052;-64
2022/04/19 02:01:05;;;;;;;3.55;2.22;;;2.90;99.90;;;;;;5026159;28;20055;-64
2022/04/19 02:03:34;;;;;;;3.40;3.10;;;3.00;99.90;;;;;;5063362;28;20590;-64
2022/04/19 02:06:05;;;;;;;2.10;1.90;;;2.90;99.90;;;;;;5030496;28;20212;-63
2022/04/19 02:08:33;;;;;;;2.83;1.95;;;2.90;99.90;;;;;;5060949;28;20040;-64
2022/04/19 02:11:00;;;;;;;2.58;2.38;;;2.90;99.90;;;;;;5021425;28;20132;-64
2022/04/19 02:13:27;;;;;;;2.28;2.00;;;2.90;99.90;;;;;;5031329;28;20041;-63
2022/04/19 02:16:11;;;;;;;2.22;2.03;;;2.90;99.90;;;;;;5027921;28;20045;-64
2022/04/19 02:18:38;;;;;;;3.22;1.60;;;2.90;99.90;;;;;;5030120;28;20140;-64
2022/04/19 02:21:05;;;;;;;2.08;1.67;;;2.90;99.90;;;;;;5053064;28;20139;-65
2022/04/19 02:23:32;;;;;;;1.95;1.40;;;2.90;99.90;;;;;;5041497;28;20110;-63
2022/04/19 02:25:59;;;;;;;1.85;1.67;;;2.90;99.90;;;;;;5033986;28;20119;-65
2022/04/19 02:28:27;;;;;;;1.88;1.50;;;3.00;99.90;;;;;;5057227;28;20049;-64
2022/04/19 02:31:05;;;;;;;1.90;1.35;;;3.00;99.90;;;;;;5003308;28;20446;-63
2022/04/19 02:33:34;;;;;;;1.60;1.50;;;3.00;99.90;;;;;;5005977;28;20046;-63
2022/04/19 02:36:03;;;;;;;3.08;1.77;;;3.00;99.90;;;;;;5002236;28;20096;-64
2022/04/19 02:38:30;;;;;;;2.50;1.60;;;3.00;99.90;;;;;;4999808;28;20123;-65
2022/04/19 02:41:04;;;;;;;1.75;1.50;;;3.00;99.90;;;;;;5032810;28;20502;-63
2022/04/19 02:43:32;;;;;;;2.20;2.00;;;3.00;99.90;;;;;;5001519;28;20069;-64
2022/04/19 02:45:59;;;;;;;1.67;1.40;;;3.00;99.90;;;;;;5000944;28;20398;-63
2022/04/19 02:48:34;;;;;;;1.92;1.40;;;3.00;99.90;;;;;;5005710;28;20152;-63
2022/04/19 02:51:02;;;;;;;1.77;1.42;;;3.00;99.90;;;;;;4996345;28;20414;-63
2022/04/19 02:53:29;;;;;;;2.30;2.05;;;3.00;99.90;;;;;;5024232;28;20372;-63
2022/04/19 02:55:56;;;;;;;1.75;1.52;;;2.90;99.90;;;;;;5024088;28;20080;-64
2022/04/19 02:58:25;;;;;;;1.92;1.70;;;2.90;99.90;;;;;;5008009;28;20232;-63
2022/04/19 03:00:55;;;;;;;;;;;2.90;99.90;;;;;;5024464;28;20037;-66
2022/04/19 03:03:22;;;;;;;5.47;2.17;;;2.90;99.90;;;;;;5007596;28;20032;-63
2022/04/19 03:05:52;;;;;;;3.03;1.60;;;2.90;99.90;;;;;;5001525;28;20045;-69
2022/04/19 03:08:19;;;;;;;1.77;1.30;;;2.90;99.90;;;;;;5011337;28;20159;-64
2022/04/19 03:10:46;;;;;;;4.43;1.70;;;2.80;99.90;;;;;;4998512;28;20053;-63
2022/04/19 03:13:13;;;;;;;1.65;1.55;;;2.80;99.90;;;;;;5007867;28;20121;-64
2022/04/19 03:15:40;;;;;;;2.42;1.73;;;2.80;99.90;;;;;;5034213;28;20107;-68
2022/04/19 03:18:07;;;;;;;1.55;1.40;;;2.80;99.90;;;;;;4998750;28;20038;-64
2022/04/19 03:20:36;;;;;;;2.70;1.70;;;2.80;99.90;;;;;;5002049;28;20042;-63
2022/04/19 03:28:48;;;;;;;1.80;1.10;;;2.80;99.90;;;;;;5028489;28;20396;-63
2022/04/19 03:31:16;;;;;;;2.67;1.75;;;2.80;99.90;;;;;;5044852;28;20124;-63
2022/04/19 03:33:44;;;;;;;2.90;1.50;;;2.80;99.90;;;;;;5057120;28;20687;-64
2022/04/19 03:36:11;;;;;;;3.13;2.00;;;2.80;99.90;;;;;;5028954;28;20566;-64
2022/04/19 03:38:38;;;;;;;1.95;1.50;;;2.80;99.90;;;;;;5026385;28;20504;-63
2022/04/19 03:41:05;;;;;;;1.75;1.60;;;2.70;99.90;;;;;;5036309;28;20084;-66
2022/04/19 03:43:33;;;;;;;3.30;1.77;;;2.70;99.90;;;;;;5023800;28;20170;-63
2022/04/19 03:46:00;;;;;;;4.35;1.35;;;2.70;99.90;;;;;;5061046;28;20133;-64
2022/04/19 03:48:29;;;;;;;1.98;1.77;;;2.80;99.90;;;;;;5023879;28;20135;-65
2022/04/19 03:50:55;;;;;;;1.90;1.60;;;2.80;99.90;;;;;;5029235;28;20814;-64
2022/04/19 03:53:22;;;;;;;1.92;1.38;;;2.80;99.90;;;;;;5025672;28;20104;-63
2022/04/19 03:55:49;;;;;;;2.22;1.27;;;2.80;99.90;;;;;;5062161;28;20057;-63
2022/04/19 03:58:17;;;;;;;2.03;1.65;;;2.80;99.90;;;;;;5026079;28;20048;-63
2022/04/19 04:00:44;;;;;;;2.97;1.95;;;2.80;99.90;;;;;;5051718;28;20053;-63
2022/04/19 04:03:11;;;;;;;4.00;2.58;;;2.90;99.90;;;;;;5021703;28;20534;-64
2022/04/19 04:05:38;;;;;;;3.28;1.67;;;2.90;99.90;;;;;;5022471;28;20076;-63
2022/04/19 04:08:07;;;;;;;2.58;1.90;;;2.90;99.90;;;;;;5047195;28;20391;-63
2022/04/19 04:10:43;;;;;;;3.35;1.65;;;3.00;99.90;;;;;;5013120;28;20076;-63
2022/04/19 04:13:10;;;;;;;2.38;1.55;;;3.00;99.90;;;;;;5030355;28;20045;-64
2022/04/19 04:15:37;;;;;;;3.20;2.17;;;3.10;99.90;;;;;;5031076;28;20049;-64
2022/04/19 04:18:04;;;;;;;3.55;1.63;;;3.10;99.90;;;;;;5041323;28;20095;-63
2022/04/19 04:20:32;;;;;;;1.50;1.40;;;3.10;99.90;;;;;;5024271;28;20356;-64
2022/04/19 04:23:00;;;;;;;3.67;1.98;;;3.20;99.90;;;;;;5024763;28;20423;-64
2022/04/19 04:25:27;;;;;;;2.67;1.77;;;3.20;99.90;;;;;;5036294;28;20143;-64
2022/04/19 04:27:54;;;;;;;1.92;1.70;;;3.30;99.90;;;;;;5022940;28;20533;-65
2022/04/19 04:30:25;;;;;;;2.53;1.88;;;3.30;99.90;;;;;;5063891;28;20044;-64
2022/04/19 04:33:00;;;;;;;3.42;1.65;;;3.40;99.90;;;;;;5024621;28;21369;-63
2022/04/19 04:35:28;;;;;;;1.80;1.63;;;3.40;99.90;;;;;;5031990;28;20048;-64
2022/04/19 04:37:55;;;;;;;2.25;1.95;;;3.50;99.90;;;;;;5025293;28;20117;-65
2022/04/19 04:40:23;;;;;;;2.20;1.35;;;3.60;99.90;;;;;;5063252;28;20036;-64
2022/04/19 04:42:58;;;;;;;2.67;1.63;;;3.60;99.90;;;;;;5023246;28;20382;-63
2022/04/19 04:45:26;;;;;;;5.93;2.70;;;3.70;99.90;;;;;;5060394;28;20043;-64
2022/04/19 04:50:39;;;;;;;4.35;2.40;;;3.90;99.90;;;;;;5048634;28;20065;-63
2022/04/19 04:53:07;;;;;;;2.13;1.70;;;3.90;99.90;;;;;;5012263;28;20107;-64
2022/04/19 04:55:38;;;;;;;2.85;1.77;;;4.00;99.90;;;;;;5054304;28;20048;-66
2022/04/19 04:58:10;;;;;;;5.88;2.30;;;4.10;99.90;;;;;;5014660;28;20633;-62
2022/04/19 05:00:37;;;;;;;3.63;1.58;;;4.20;99.90;;;;;;5050440;28;20037;-64
2022/04/19 05:03:04;;;;;;;4.60;2.20;;;4.30;99.90;;;;;;5012098;28;20048;-64
2022/04/19 05:05:31;;;;;;;3.13;1.60;;;4.40;99.90;;;;;;5046346;28;20685;-66
2022/04/19 05:08:03;;;;;;;4.50;1.50;;;4.40;99.90;;;;;;5043422;28;20048;-64
2022/04/19 05:10:30;;;;;;;5.00;1.65;;;4.50;99.90;;;;;;5013209;28;20279;-65
2022/04/19 05:13:01;;;;;;;2.80;1.90;;;4.70;99.90;;;;;;5012846;28;21021;-63
2022/04/19 05:15:28;;;;;;;6.70;2.97;;;4.80;99.90;;;;;;5014924;28;20037;-64
2022/04/19 05:17:55;;;;;;;3.38;1.98;;;4.80;99.90;;;;;;5022182;28;20125;-64
2022/04/19 05:20:22;;;;;;;4.53;1.63;;;4.90;99.90;;;;;;5043824;28;20045;-64
2022/04/19 05:22:50;;;;;;;5.28;1.88;;;4.90;99.90;;;;;;5025315;28;20045;-64
2022/04/19 05:25:17;;;;;;;17.80;3.70;;;5.00;99.90;;;;;;5022712;28;20083;-64
2022/04/19 05:27:44;;;;;;;2.88;1.45;;;5.10;99.90;;;;;;5028656;28;20045;-63
2022/04/19 05:30:12;;;;;;;1.60;1.50;;;5.30;99.90;;;;;;5017568;28;20041;-64
2022/04/19 05:32:39;;;;;;;6.22;3.08;;;5.40;99.90;;;;;;5030188;28;20848;-65
2022/04/19 05:35:07;;;;;;;4.25;2.35;;;5.50;99.90;;;;;;5033489;28;20060;-63
2022/04/19 05:37:38;;;;;;;5.90;1.70;;;5.70;99.90;;;;;;5024048;28;20060;-63
2022/04/19 05:40:07;;;;;;;3.92;2.00;;;5.80;99.90;;;;;;5022276;28;20055;-64
2022/04/19 05:42:36;;;;;;;10.88;1.85;;;5.90;99.90;;;;;;5019224;28;20049;-64
2022/04/19 05:45:04;;;;;;;7.30;2.45;;;6.00;99.90;;;;;;5017055;28;20038;-65
2022/04/19 05:47:33;;;;;;;5.13;1.90;;;6.10;99.90;;;;;;5036149;28;20107;-65
2022/04/19 05:50:00;;;;;;;5.97;2.03;;;6.20;99.90;;;;;;5019712;28;20038;-65
2022/04/19 05:52:27;;;;;;;13.35;3.10;;;6.30;99.90;;;;;;5043413;28;20041;-66
2022/04/19 05:54:55;;;;;;;12.60;2.75;;;6.30;99.90;;;;;;5014814;28;20037;-65
2022/04/19 05:57:22;;;;;;;2.65;1.85;;;6.50;99.90;;;;;;5032777;28;20041;-64
2022/04/19 05:59:48;;;;;;;5.80;2.67;;;6.50;99.90;;;;;;5013315;28;20061;-64
2022/04/19 06:05:01;;;;;;;5.20;2.15;;;6.80;99.90;;;;;;5030863;28;20053;-64
2022/04/19 06:07:31;;;;;;;1.73;1.63;;;6.90;99.90;;;;;;5021529;28;20045;-65
2022/04/19 06:10:09;;;;;;;6.07;2.20;;;7.00;99.90;;;;;;5053582;28;20387;-64
2022/04/19 06:12:38;;;;;;;5.07;3.28;;;7.10;99.90;;;;;;5039897;28;20669;-65
2022/04/19 06:15:07;;;;;;;4.85;2.20;;;7.20;99.90;;;;;;5056063;28;20053;-64
2022/04/19 06:17:35;;;;;;;2.17;1.40;;;7.30;99.90;;;;;;5022482;28;20498;-65
2022/04/19 06:20:10;;;;;;;4.40;2.28;;;7.40;99.90;;;;;;5032030;28;20041;-64
2022/04/19 06:22:38;;;;;;;4.13;2.10;;;7.40;99.90;;;;;;5049079;28;20147;-64
2022/04/19 06:25:11;;;;;;;4.55;1.98;;;7.60;99.90;;;;;;5022903;28;20059;-64
2022/04/19 06:27:39;;;;;;;3.10;2.15;;;7.70;99.90;;;;;;5015615;28;20422;-64
2022/04/19 06:30:07;;;;;;;5.88;2.47;;;7.80;99.90;;;;;;5022801;28;20513;-64
2022/04/19 06:32:35;;;;;;;3.03;1.92;;;7.90;99.90;;;;;;5052220;28;20095;-64
2022/04/19 06:35:04;;;;;;;4.20;2.25;;;8.10;99.90;;;;;;5025115;28;20041;-63
2022/04/19 06:37:33;;;;;;;5.63;2.05;;;8.20;99.90;;;;;;5014524;28;20111;-63
2022/04/19 06:40:09;;;;;;;2.65;2.28;;;8.30;99.90;;;;;;5018744;28;20144;-63
2022/04/19 06:42:36;;;;;;;4.60;2.22;;;8.40;99.90;;;;;;5053713;28;20099;-63
2022/04/19 06:45:25;;;;;;;6.10;2.25;;;8.60;99.90;;;;;;5054517;28;20093;-63
2022/04/19 06:47:59;;;;;;;3.25;2.42;;;8.70;99.90;;;;;;5033561;28;20435;-64
2022/04/19 06:50:29;;;;;;;10.18;2.20;;;8.80;99.90;;;;;;5057186;28;20052;-64
2022/04/19 06:53:02;;;;;;;5.00;1.98;;;8.90;99.90;;;;;;5036024;28;20057;-65
2022/04/19 06:55:49;;;;;;;2.30;1.88;;;9.00;99.90;;;;;;5036247;28;20043;-64
2022/04/19 06:58:17;;;;;;;1.65;1.45;;;9.10;99.90;;;;;;5060857;28;20111;-64
2022/04/19 07:00:45;;;;;;;4.88;2.67;;;9.10;99.90;;;;;;5057304;28;20045;-64
2022/04/19 07:03:13;;;;;;;5.00;2.20;;;9.20;99.90;;;;;;5038157;28;20045;-64
2022/04/19 07:06:00;;;;;;;3.63;1.88;;;9.30;99.90;;;;;;5030405;28;20040;-64
2022/04/19 07:08:27;;;;;;;1.52;1.27;;;9.40;99.90;;;;;;5041114;28;20553;-64
2022/04/19 07:10:55;;;;;;;6.90;1.92;;;9.50;99.90;;;;;;5056973;28;20049;-63
2022/04/19 07:13:43;;;;;;;4.05;1.88;;;9.50;99.90;;;;;;4979542;28;20043;-65
2022/04/19 07:16:16;;;;;;;3.63;2.00;;;9.70;99.90;;;;;;5022803;28;20108;-64
2022/04/19 07:18:43;;;;;;;2.65;1.92;;;9.90;99.90;;;;;;5021805;28;20086;-65
2022/04/19 07:26:41;;;;;;;2.15;1.73;;;10.20;99.90;;;;;;5022643;28;20052;-65
2022/04/19 07:29:13;;;;;;;4.82;2.50;;;10.30;99.90;;;;;;5024145;28;20049;-64
2022/04/19 07:31:43;;;;;;;4.15;1.83;;;10.30;99.90;;;;;;5026912;28;20132;-65
2022/04/19 07:34:24;;;;;;;2.30;1.88;;;10.40;99.90;;;;;;5055459;28;20067;-64
2022/04/19 07:36:51;;;;;;;2.45;1.80;;;10.50;99.90;;;;;;5039155;28;20041;-64
2022/04/19 07:39:18;;;;;;;3.13;1.42;;;10.50;99.90;;;;;;5007724;28;20116;-65
2022/04/19 07:41:47;;;;;;;1.60;1.50;;;10.50;99.90;;;;;;5062413;28;20051;-66
2022/04/19 07:44:15;;;;;;;1.60;1.45;;;10.60;99.90;;;;;;5026784;28;20056;-64
2022/04/19 07:46:44;;;;;;;2.05;1.70;;;10.70;99.90;;;;;;5026654;28;20037;-66
2022/04/19 07:49:11;;;;;;;5.63;2.25;;;10.80;99.90;;;;;;5019415;28;20391;-67
2022/04/19 07:51:40;;;;;;;2.58;1.30;;;10.80;99.90;;;;;;5022854;28;20073;-65
2022/04/19 07:54:07;;;;;;;3.55;2.10;;;10.90;99.90;;;;;;5051088;28;20513;-64
2022/04/19 07:56:34;;;;;;;2.13;1.85;;;10.90;99.90;;;;;;5025735;28;20608;-66
2022/04/19 07:59:01;;;;;;;4.18;2.10;;;11.00;99.90;;;;;;5019474;28;20057;-64
2022/04/19 08:01:32;;;;;;;4.70;2.92;;;11.10;99.90;;;;;;5020994;28;20099;-64
2022/04/19 08:04:00;;;;;;;2.75;1.25;;;11.00;99.90;;;;;;5027706;28;20052;-65
2022/04/19 08:06:28;;;;;;;3.20;1.38;;;11.10;99.90;;;;;;5021142;28;20345;-65
2022/04/19 08:08:55;;;;;;;2.40;1.30;;;11.10;99.90;;;;;;5016668;28;20037;-65
2022/04/19 08:11:22;;;;;;;2.05;1.42;;;11.20;99.90;;;;;;5061208;28;20037;-65
2022/04/19 08:13:50;;;;;;;2.50;1.65;;;11.30;99.90;;;;;;5023156;28;20741;-65
2022/04/19 08:16:17;;;;;;;4.22;1.38;;;11.40;99.90;;;;;;5042937;28;20025;-65
2022/04/19 08:18:46;;;;;;;1.52;1.00;;;11.50;99.90;;;;;;5019037;28;20091;-65
2022/04/19 08:21:14;;;;;;;4.85;1.40;;;11.50;99.90;;;;;;5023571;28;20829;-65
2022/04/19 08:23:43;;;;;;;3.53;1.98;;;11.60;99.90;;;;;;5051351;28;20049;-67
2022/04/19 08:26:16;;;;;;;2.42;1.13;;;11.70;99.90;;;;;;5026939;28;20045;-64
2022/04/19 08:28:44;;;;;;;0.98;0.88;;;11.70;99.90;;;;;;5054665;28;20056;-64
2022/04/19 08:31:12;;;;;;;2.97;1.42;;;11.70;99.90;;;;;;5038880;28;20354;-65
2022/04/19 08:33:39;;;;;;;1.70;1.00;;;11.90;99.90;;;;;;5020408;28;20044;-64
2022/04/19 08:36:07;;;;;;;1.92;1.05;;;12.10;99.90;;;;;;5017353;28;20049;-63
2022/04/19 08:38:35;;;;;;;1.42;1.00;;;12.20;99.90;;;;;;5030527;28;20483;-66
2022/04/19 08:41:03;;;;;;;1.45;1.35;;;12.20;99.90;;;;;;5035169;28;20060;-65
2022/04/19 08:43:31;;;;;;;2.17;1.40;;;12.30;99.90;;;;;;5029012;28;20071;-64
2022/04/19 08:45:59;;;;;;;3.85;1.67;;;12.30;99.90;;;;;;5043265;28;20132;-67
2022/04/19 08:48:27;;;;;;;0.90;0.85;;;12.30;99.90;;;;;;5043907;28;20095;-64
2022/04/19 08:51:00;;;;;;;3.20;0.95;;;12.40;99.90;;;;;;5039928;28;20439;-65
2022/04/19 08:59:04;;;;;;;2.58;1.25;;;12.50;99.90;;;;;;5036312;28;20042;-64
2022/04/19 09:01:32;;;;;;;2.45;0.98;;;12.50;99.90;;;;;;5041659;28;20073;-64
2022/04/19 09:03:58;;;;;;;3.67;1.20;;;12.50;99.80;;;;;;5036969;28;20045;-65
2022/04/19 09:06:54;;;;;;;1.88;0.82;;;12.60;99.90;;;;;;5034941;28;20429;-65
2022/04/19 09:09:34;;;;;;;1.63;1.17;;;12.70;99.90;;;;;;5039981;28;20132;-65
2022/04/19 09:12:10;;;;;;;1.88;0.77;;;12.90;99.90;;;;;;5025677;28;20132;-64
2022/04/19 09:14:58;;;;;;;3.90;1.05;;;13.00;99.50;;;;;;5026778;28;20048;-64
2022/04/19 09:17:36;;;;;;;0.90;0.80;;;13.00;99.60;;;;;;5028155;28;20044;-65
2022/04/19 09:20:18;;;;;;;3.55;1.33;;;13.10;98.40;;;;;;5034568;28;20065;-64
2022/04/19 09:22:50;;;;;;;2.00;0.93;;;13.30;98.50;;;;;;5034758;28;20041;-64
2022/04/19 09:25:24;;;;;;;2.63;0.63;;;13.20;98.10;;;;;;5042417;28;20092;-65
2022/04/19 09:27:54;;;;;;;5.38;0.90;;;13.20;97.60;;;;;;5044568;28;20064;-65
2022/04/19 09:30:31;;;;;;;1.27;0.73;;;13.30;96.60;;;;;;5034515;28;20114;-64
2022/04/19 09:33:07;;;;;;;2.80;1.05;;;13.20;96.80;;;;;;5052874;28;20125;-64
2022/04/19 09:35:37;;;;;;;1.80;1.00;;;13.30;97.10;;;;;;5027729;28;20140;-64
2022/04/19 09:38:05;;;;;;;2.08;1.02;;;13.40;97.10;;;;;;5044769;28;20044;-64
2022/04/19 09:40:36;;;;;;;1.40;1.08;;;13.50;96.20;;;;;;5038042;28;20456;-67
2022/04/19 09:43:14;;;;;;;1.38;1.27;;;13.50;97.00;;;;;;5026748;28;20068;-64
2022/04/19 09:45:45;;;;;;;1.67;1.27;;;13.50;96.90;;;;;;5039970;28;20131;-65
2022/04/19 09:48:15;;;;;;;;;;;13.60;97.30;;;;;;5039453;28;20049;-66
2022/04/19 09:50:51;;;;;;;3.00;1.48;;;13.70;97.60;;;;;;5040390;28;19948;-64
2022/04/19 09:53:20;;;;;;;1.83;1.35;;;13.80;98.20;;;;;;5044852;28;20705;-65
2022/04/19 09:55:52;;;;;;;1.48;1.38;;;13.90;98.90;;;;;;5039938;28;20136;-65
2022/04/19 09:58:20;;;;;;;2.60;1.27;;;14.00;99.10;;;;;;5047438;28;20795;-66
2022/04/19 10:00:48;;;;;;;2.72;1.35;;;14.10;99.00;;;;;;5039600;28;20045;-64
2022/04/19 10:08:52;;;;;;;2.88;1.50;;;14.10;99.30;;;;;;5030443;28;20146;-64
2022/04/19 10:11:19;;;;;;;3.13;1.48;;;14.10;99.40;;;;;;5033013;28;20139;-67
2022/04/19 10:13:46;;;;;;;4.43;1.45;;;14.10;99.20;;;;;;5050966;28;20641;-64
2022/04/19 10:16:15;;;;;;;4.03;1.75;;;14.20;99.10;;;;;;5036623;28;20072;-65
2022/04/19 10:18:44;;;;;;;2.40;1.55;;;14.30;99.30;;;;;;5041946;28;20058;-64
2022/04/19 10:21:18;;;;;;;4.63;1.23;;;14.30;98.10;;;;;;5046733;28;20115;-64
2022/04/19 10:23:45;;;;;;;2.85;1.80;;;14.30;98.60;;;;;;5040398;28;20159;-67
2022/04/19 10:26:12;;;;;;;5.50;1.85;;;14.40;98.70;;;;;;5044467;28;20155;-64
2022/04/19 10:28:39;;;;;;;2.53;1.73;;;14.40;98.20;;;;;;5043078;28;20077;-67
2022/04/19 10:31:07;;;;;;;1.80;1.23;;;14.40;98.00;;;;;;5033831;28;20313;-65
2022/04/19 10:33:50;;;;;;;2.47;1.42;;;14.30;98.50;;;;;;5038179;28;20057;-64
2022/04/19 10:36:37;;;;;;;2.17;1.50;;;14.40;98.60;;;;;;5035162;28;20374;-65
2022/04/19 10:39:13;;;;;;;3.80;1.42;;;14.60;98.80;;;;;;5033861;28;20033;-65
2022/04/19 10:42:00;;;;;;;3.22;1.30;;;14.60;97.60;;;;;;5028328;28;20037;-65
2022/04/19 10:44:36;;;;;;;3.83;1.63;;;14.60;97.80;;;;;;5039738;28;20044;-64
2022/04/19 10:47:12;;;;;;;3.45;1.15;;;14.50;97.70;;;;;;5026250;28;20037;-64
2022/04/19 10:50:07;;;;;;;1.73;0.90;;;14.60;98.60;;;;;;5037058;28;20357;-64
2022/04/19 10:52:37;;;;;;;1.00;1.00;;;14.80;97.40;;;;;;5037061;28;20041;-65
2022/04/19 10:55:11;;;;;;;2.33;1.77;;;14.70;97.30;;;;;;5044756;28;20033;-64
2022/04/19 11:00:34;;;;;;;3.00;1.60;;;14.60;96.80;;;;;;5033267;28;20072;-66
2022/04/19 11:03:49;;;;;;;1.40;1.30;;;14.60;97.10;;;;;;5032210;28;20041;-64
2022/04/19 11:06:33;;;;;;;1.77;1.67;;;14.70;96.70;;;;;;5026378;28;20107;-64
2022/04/19 11:09:26;;;;;;;4.85;2.17;;;14.90;95.20;;;;;;5026300;28;20452;-65
2022/04/19 11:12:15;;;;;;;2.08;1.27;;;14.80;96.40;;;;;;5031370;28;20124;-66
2022/04/19 11:14:43;;;;;;;1.92;1.35;;;15.00;96.30;;;;;;5033519;28;20071;-64
2022/04/19 11:17:28;;;;;;;2.80;1.40;;;15.10;96.40;;;;;;5032059;28;20112;-64
2022/04/19 11:20:10;;;;;;;2.60;1.20;;;15.10;95.40;;;;;;5026022;28;20072;-64
2022/04/19 11:22:48;;;;;;;2.40;1.30;;;15.00;95.00;;;;;;5041248;28;20055;-65
2022/04/19 11:25:34;;;;;;;5.65;2.33;;;15.20;95.90;;;;;;5040217;28;20063;-65
2022/04/19 11:28:01;;;;;;;2.35;1.63;;;15.20;95.80;;;;;;5048971;28;20061;-65
2022/04/19 11:30:28;;;;;;;2.15;1.65;;;15.10;96.30;;;;;;5037794;28;20072;-64
2022/04/19 11:32:58;;;;;;;2.92;1.95;;;15.20;95.70;;;;;;5042908;28;20075;-65
2022/04/19 11:35:32;;;;;;;2.15;1.20;;;15.20;96.00;;;;;;5035393;28;20041;-64
2022/04/19 11:38:08;;;;;;;2.25;1.02;;;15.30;96.10;;;;;;5031090;28;20045;-64
2022/04/19 11:49:08;;;;;;;1.33;0.90;;;15.50;95.20;;;;;;5038772;28;20056;-65
2022/04/19 11:51:35;;;;;;;1.77;1.27;;;15.70;94.60;;;;;;5035404;28;20064;-64
2022/04/19 11:54:04;;;;;;;3.22;0.93;;;15.60;93.60;;;;;;5031038;28;20460;-64
2022/04/19 11:56:31;;;;;;;1.55;1.17;;;15.60;93.70;;;;;;5042604;28;20030;-64
2022/04/19 11:59:01;;;;;;;1.45;1.25;;;15.60;94.10;;;;;;5034379;28;20116;-63
2022/04/19 12:01:28;;;;;;;3.20;1.52;;;15.50;93.90;;;;;;5042949;28;20144;-64
2022/04/19 12:03:55;;;;;;;4.20;1.38;;;15.40;93.20;;;;;;5034993;28;20060;-64
2022/04/19 12:06:23;;;;;;;2.85;1.10;;;15.40;94.30;;;;;;5037559;28;20463;-64
2022/04/19 12:08:51;;;;;;;9.18;2.58;;;15.30;94.40;;;;;;5035925;28;20037;-67
2022/04/19 12:11:30;;;;;;;2.67;0.65;;;15.30;93.10;;;;;;5037569;28;20036;-63
2022/04/19 12:13:57;;;;;;;4.10;1.48;;;15.40;93.70;;;;;;5038863;28;20092;-65
2022/04/19 12:16:33;;;;;;;1.50;1.30;;;15.40;93.20;;;;;;5043597;28;20447;-64
2022/04/19 12:19:02;;;;;;;1.27;1.17;;;15.50;92.50;;;;;;5040465;28;20138;-64
2022/04/19 12:21:39;;;;;;;1.60;0.90;;;15.50;93.10;;;;;;5034421;28;20182;-64
2022/04/19 12:24:25;;;;;;;1.42;1.25;;;15.70;92.40;;;;;;5035730;28;20071;-64
2022/04/19 12:27:08;;;;;;;1.95;0.88;;;15.70;92.50;;;;;;5035637;28;20472;-64
2022/04/19 12:29:36;;;;;;;5.53;1.42;;;15.80;93.40;;;;;;5037778;28;20053;-64
2022/04/19 12:32:05;;;;;;;3.55;0.85;;;15.80;91.80;;;;;;5036987;28;20515;-64
2022/04/19 12:34:33;;;;;;;3.65;1.00;;;16.00;92.90;;;;;;5046819;28;20755;-65
2022/04/19 12:37:17;;;;;;;1.90;0.80;;;15.90;92.30;;;;;;5042151;28;20134;-65
2022/04/19 12:39:58;;;;;;;1.95;0.63;;;15.90;92.00;;;;;;5019368;28;20422;-64
2022/04/19 12:42:25;;;;;;;;;;;16.00;89.90;;;;;;5037020;28;20065;-65
2022/04/19 12:45:06;;;;;;;3.92;0.95;;;16.00;90.90;;;;;;5036205;28;20367;-67
2022/04/19 12:47:33;;;;;;;2.53;1.08;;;15.90;90.10;;;;;;5040989;28;20547;-64
2022/04/19 12:50:11;;;;;;;1.20;1.10;;;16.10;90.20;;;;;;5034147;28;20054;-65
2022/04/19 12:52:38;;;;;;;1.13;1.02;;;16.20;89.40;;;;;;5045500;28;20460;-64
2022/04/19 12:55:05;;;;;;;5.10;2.05;;;16.20;90.00;;;;;;5040828;28;20041;-66
2022/04/19 13:00:18;;;;;;;1.90;1.67;;;16.00;87.50;;;;;;5033050;28;20438;-66
2022/04/19 13:02:45;;;;;;;5.18;1.00;;;16.00;89.90;;;;;;5029183;28;20053;-63
2022/04/19 13:05:12;;;;;;;3.30;1.08;;;16.00;86.70;;;;;;5040519;28;20060;-64
2022/04/19 13:13:12;;;;;;;2.25;1.30;;;16.10;90.40;;;;;;5041123;28;20068;-64
2022/04/19 13:15:39;;;;;;;1.67;1.15;;;16.00;86.20;;;;;;5043127;28;20087;-64
2022/04/19 13:18:06;;;;;;;6.60;1.73;;;16.10;88.40;;;;;;5040939;28;20527;-64
2022/04/19 13:20:33;;;;;;;5.85;1.10;;;16.10;89.90;;;;;;5052585;28;20069;-65
2022/04/19 13:23:00;;;;;;;2.65;1.17;;;16.30;89.10;;;;;;5035630;28;20157;-65
2022/04/19 13:25:27;;;;;;;1.23;1.08;;;16.40;87.20;;;;;;5037238;28;20064;-67
2022/04/19 13:27:54;;;;;;;1.35;1.08;;;16.40;88.30;;;;;;5041362;28;20132;-65
2022/04/19 13:30:21;;;;;;;2.63;1.20;;;16.30;90.20;;;;;;5032053;28;20073;-64
2022/04/19 13:32:48;;;;;;;3.38;1.60;;;16.40;86.90;;;;;;5036739;28;20106;-67
2022/04/19 13:35:15;;;;;;;2.45;1.63;;;16.10;90.80;;;;;;5033356;28;20099;-63
2022/04/19 13:40:28;;;;;;;4.95;1.65;;;16.00;87.70;;;;;;5030880;28;20124;-65
2022/04/19 13:42:55;;;;;;;1.52;1.10;;;16.20;86.00;;;;;;5041357;28;20072;-63
2022/04/19 13:45:23;;;;;;;3.92;1.45;;;16.30;86.00;;;;;;5038699;28;20062;-64
2022/04/19 13:47:50;;;;;;;2.28;1.73;;;16.50;85.70;;;;;;5037522;28;20128;-64
2022/04/19 13:50:17;;;;;;;7.75;2.95;;;16.50;90.90;;;;;;5028400;28;20144;-65
2022/04/19 13:52:43;;;;;;;2.30;1.65;;;16.20;92.10;;;;;;5039321;28;20099;-63
2022/04/19 13:55:15;;;;;;;4.90;1.77;;;15.80;92.50;;;;;;5037772;28;20059;-63
2022/04/19 13:57:43;;;;;;;4.07;1.73;;;15.30;93.70;;;;;;5039054;28;20045;-65
2022/04/19 14:00:13;;;;;;;7.13;1.88;;;15.10;94.00;;;;;;5037660;28;20214;-66
2022/04/19 14:02:40;;;;;;;;;;;14.90;94.50;;;;;;5042074;28;20041;-70